createdAt,value
2022-10-21T00:00:51.483Z,100949.31
2022-10-21T00:03:18.942Z,100944.06
2022-10-21T00:05:46.382Z,100951.91
2022-10-21T00:08:13.588Z,100946.66
2022-10-21T00:10:40.289Z,100950.13
2022-10-21T00:13:06.881Z,100947.53
2022-10-21T00:15:33.436Z,100950.09
2022-10-21T00:18:00.017Z,100940.47
2022-10-21T00:20:26.645Z,100951.84
2022-10-21T00:22:53.243Z,100947.47
2022-10-21T00:25:19.818Z,100951.88
2022-10-21T00:27:46.536Z,100955.28
2022-10-21T00:30:13.152Z,100942.22
2022-10-21T00:32:40.040Z,100945.75
2022-10-21T00:35:07.183Z,100930.09
2022-10-21T00:37:33.916Z,100932.75
2022-10-21T00:40:00.566Z,100931.88
2022-10-21T00:42:43.730Z,100930.19
2022-10-21T00:45:20.387Z,100928.44
2022-10-21T00:47:51.442Z,100929.19
2022-10-21T00:50:33.264Z,100922.22
2022-10-21T00:53:02.237Z,100916.97
2022-10-21T00:55:34.113Z,100909.03
2022-10-21T00:58:02.878Z,100905.50
2022-10-21T01:00:29.944Z,100909.19
2022-10-21T01:02:56.571Z,100902.13
2022-10-21T01:05:23.519Z,100892.50
2022-10-21T01:07:51.173Z,100898.50
2022-10-21T01:10:18.689Z,100897.56
2022-10-21T01:12:58.882Z,100905.38
2022-10-21T01:15:41.791Z,100897.59
2022-10-21T01:18:17.415Z,100888.13
2022-10-21T01:21:05.320Z,100897.63
2022-10-21T01:24:04.006Z,100898.44
2022-10-21T01:26:36.502Z,100888.78
2022-10-21T01:29:21.961Z,100889.66
2022-10-21T01:32:00.669Z,100893.09
2022-10-21T01:34:38.118Z,100903.56
2022-10-21T01:37:31.568Z,100894.06
2022-10-21T01:40:08.875Z,100889.66
2022-10-21T01:42:43.049Z,100887.94
2022-10-21T01:45:29.227Z,100890.44
2022-10-21T01:48:05.940Z,100887.63
2022-10-21T01:50:38.878Z,100885.09
2022-10-21T01:53:10.028Z,100875.53
2022-10-21T01:55:38.381Z,100866.88
2022-10-21T01:58:25.406Z,100862.41
2022-10-21T02:00:55.429Z,100865.78
2022-10-21T02:03:26.979Z,100865.00
2022-10-21T02:05:53.998Z,100871.28
2022-10-21T02:08:21.158Z,100863.44
2022-10-21T02:10:50.755Z,100862.56
2022-10-21T02:13:29.799Z,100868.72
2022-10-21T02:16:01.467Z,100868.72
2022-10-21T02:18:28.124Z,100859.06
2022-10-21T02:20:59.647Z,100867.63
2022-10-21T02:23:51.529Z,100877.31
2022-10-21T02:26:19.195Z,100873.72
2022-10-21T02:28:46.869Z,100876.19
2022-10-21T02:31:30.132Z,100879.53
2022-10-21T02:34:21.518Z,100884.88
2022-10-21T02:37:13.794Z,100891.25
2022-10-21T02:39:48.169Z,100885.72
2022-10-21T02:42:20.424Z,100890.88
2022-10-21T02:44:47.084Z,100896.06
2022-10-21T02:47:16.037Z,100898.69
2022-10-21T02:49:47.238Z,100896.00
2022-10-21T02:52:13.843Z,100888.19
2022-10-21T02:54:40.422Z,100878.97
2022-10-21T02:57:07.022Z,100893.69
2022-10-21T02:59:33.701Z,100902.25
2022-10-21T03:02:00.271Z,100895.47
2022-10-21T03:04:26.873Z,100890.41
2022-10-21T03:06:53.539Z,100876.06
2022-10-21T03:09:20.236Z,100871.50
2022-10-21T03:11:46.887Z,100869.78
2022-10-21T03:14:13.574Z,100875.97
2022-10-21T03:16:40.150Z,100878.59
2022-10-21T03:19:06.754Z,100885.28
2022-10-21T03:21:33.436Z,100880.19
2022-10-21T03:24:00.038Z,100879.25
2022-10-21T03:26:26.604Z,100880.22
2022-10-21T03:28:53.163Z,100875.19
2022-10-21T03:31:19.747Z,100876.75
2022-10-21T03:33:46.359Z,100876.84
2022-10-21T03:36:12.988Z,100877.72
2022-10-21T03:38:39.713Z,100875.88
2022-10-21T03:41:06.314Z,100878.19
2022-10-21T03:43:32.881Z,100862.66
2022-10-21T03:45:59.449Z,100856.94
2022-10-21T03:48:26.169Z,100850.56
2022-10-21T03:50:52.740Z,100853.22
2022-10-21T03:53:38.139Z,100851.38
2022-10-21T03:56:06.253Z,100853.09
2022-10-21T03:58:32.819Z,100851.47
2022-10-21T04:00:59.388Z,100855.88
2022-10-21T04:03:26.001Z,100850.91
2022-10-21T04:05:52.570Z,100855.91
2022-10-21T04:08:19.205Z,100855.78
2022-10-21T04:10:45.874Z,100846.41
2022-10-21T04:13:12.757Z,100837.56
2022-10-21T04:15:39.814Z,100838.25
2022-10-21T04:18:07.579Z,100834.28
2022-10-21T04:20:34.230Z,100837.38
2022-10-21T04:23:00.978Z,100831.53
2022-10-21T04:25:27.543Z,100825.31
2022-10-21T04:27:54.099Z,100826.84
2022-10-21T04:30:20.675Z,100839.75
2022-10-21T04:32:47.278Z,100828.63
2022-10-21T04:35:13.876Z,100820.69
2022-10-21T04:37:40.464Z,100824.03
2022-10-21T04:40:08.524Z,100812.91
2022-10-21T04:42:35.352Z,100813.69
2022-10-21T04:45:02.195Z,100811.19
2022-10-21T04:47:28.815Z,100812.00
2022-10-21T04:49:55.386Z,100798.13
2022-10-21T04:52:21.965Z,100798.00
2022-10-21T04:54:48.560Z,100798.84
2022-10-21T04:57:15.147Z,100792.91
2022-10-21T04:59:41.751Z,100773.88
2022-10-21T05:02:08.394Z,100779.03
2022-10-21T05:04:34.958Z,100787.63
2022-10-21T05:07:01.535Z,100777.16
2022-10-21T05:09:28.123Z,100785.88
2022-10-21T05:11:54.745Z,100787.41
2022-10-21T05:14:22.721Z,100794.53
2022-10-21T05:16:49.821Z,100797.13
2022-10-21T05:19:16.438Z,100799.63
2022-10-21T05:21:43.089Z,100806.78
2022-10-21T05:24:09.692Z,100802.63
2022-10-21T05:26:36.267Z,100804.88
2022-10-21T05:29:02.941Z,100812.72
2022-10-21T05:31:29.572Z,100804.13
2022-10-21T05:33:56.808Z,100794.31
2022-10-21T05:36:24.194Z,100791.81
2022-10-21T05:38:51.638Z,100793.56
2022-10-21T05:41:18.404Z,100795.16
2022-10-21T05:43:44.960Z,100791.03
2022-10-21T05:46:11.577Z,100791.56
2022-10-21T05:48:38.383Z,100797.72
2022-10-21T05:51:05.643Z,100817.94
2022-10-21T05:53:32.206Z,100831.06
2022-10-21T05:56:04.684Z,100837.16
2022-10-21T05:58:32.755Z,100818.47
2022-10-21T06:00:59.973Z,100815.50
2022-10-21T06:03:28.885Z,100803.22
2022-10-21T06:05:57.993Z,100796.00
2022-10-21T06:08:25.079Z,100808.84
2022-10-21T06:11:02.907Z,100817.34
2022-10-21T06:13:29.659Z,100834.53
2022-10-21T06:15:56.725Z,100843.25
2022-10-21T06:18:23.349Z,100845.84
2022-10-21T06:20:49.952Z,100869.41
2022-10-21T06:23:16.595Z,100860.81
2022-10-21T06:25:44.371Z,100850.38
2022-10-21T06:28:11.007Z,100846.94
2022-10-21T06:30:37.585Z,100847.00
2022-10-21T06:33:04.183Z,100850.63
2022-10-21T06:35:30.833Z,100848.06
2022-10-21T06:37:57.430Z,100844.59
2022-10-21T06:40:24.019Z,100853.16
2022-10-21T06:42:50.664Z,100851.50
2022-10-21T06:45:17.418Z,100852.53
2022-10-21T06:47:43.980Z,100852.59
2022-10-21T06:50:11.742Z,100851.84
2022-10-21T06:52:38.311Z,100861.50
2022-10-21T06:55:05.483Z,100858.94
2022-10-21T06:57:32.075Z,100862.47
2022-10-21T06:59:58.634Z,100848.41
2022-10-21T07:02:25.252Z,100846.75
2022-10-21T07:04:52.208Z,100844.94
2022-10-21T07:07:19.403Z,100832.84
2022-10-21T07:09:46.042Z,100827.84
2022-10-21T07:12:12.838Z,100827.75
2022-10-21T07:14:39.425Z,100821.03
2022-10-21T07:17:06.082Z,100824.47
2022-10-21T07:19:33.178Z,100828.22
2022-10-21T07:21:59.831Z,100832.56
2022-10-21T07:24:26.472Z,100837.00
2022-10-21T07:26:53.121Z,100842.25
2022-10-21T07:29:20.428Z,100844.16
2022-10-21T07:31:47.030Z,100838.31
2022-10-21T07:34:13.598Z,100841.94
2022-10-21T07:36:43.554Z,100841.13
2022-10-21T07:39:13.836Z,100853.22
2022-10-21T07:41:44.462Z,100855.13
2022-10-21T07:44:11.621Z,100846.34
2022-10-21T07:46:39.973Z,100838.53
2022-10-21T07:49:07.566Z,100851.59
2022-10-21T07:51:34.282Z,100845.56
2022-10-21T07:54:01.459Z,100842.91
2022-10-21T07:56:33.948Z,100833.28
2022-10-21T07:59:01.269Z,100841.06
2022-10-21T08:01:28.772Z,100835.84
2022-10-21T08:03:55.786Z,100834.13
2022-10-21T08:06:23.911Z,100827.00
2022-10-21T08:08:50.649Z,100822.53
2022-10-21T08:11:25.638Z,100826.09
2022-10-21T08:13:53.255Z,100823.56
2022-10-21T08:16:19.965Z,100809.63
2022-10-21T08:18:47.167Z,100797.28
2022-10-21T08:21:13.854Z,100788.38
2022-10-21T08:23:40.704Z,100793.44
2022-10-21T08:26:11.774Z,100789.22
2022-10-21T08:28:38.604Z,100787.53
2022-10-21T08:31:05.764Z,100786.56
2022-10-21T08:33:32.491Z,100781.91
2022-10-21T08:35:59.084Z,100782.03
2022-10-21T08:38:25.718Z,100784.75
2022-10-21T08:40:54.962Z,100780.16
2022-10-21T08:43:29.663Z,100786.06
2022-10-21T08:46:13.906Z,100782.53
2022-10-21T08:48:54.245Z,100776.94
2022-10-21T08:51:44.940Z,100767.88
2022-10-21T08:54:24.442Z,100764.00
2022-10-21T08:56:56.613Z,100763.25
2022-10-21T08:59:25.405Z,100755.16
2022-10-21T09:02:05.459Z,100749.63
2022-10-21T09:04:53.237Z,100747.97
2022-10-21T09:07:45.953Z,100747.41
2022-10-21T09:10:20.337Z,100737.63
2022-10-21T09:13:10.160Z,100735.66
2022-10-21T09:16:04.927Z,100737.69
2022-10-21T09:18:47.120Z,100742.47
2022-10-21T09:21:50.865Z,100732.72
2022-10-21T09:24:40.586Z,100727.13
2022-10-21T09:27:10.225Z,100727.34
2022-10-21T09:29:38.195Z,100737.34
2022-10-21T09:32:04.775Z,100743.50
2022-10-21T09:34:55.250Z,100740.41
2022-10-21T09:37:43.662Z,100734.47
2022-10-21T09:40:18.639Z,100728.09
2022-10-21T09:42:48.162Z,100723.53
2022-10-21T09:45:39.331Z,100718.84
2022-10-21T09:48:17.942Z,100708.16
2022-10-21T09:50:52.319Z,100704.78
2022-10-21T09:53:45.920Z,100693.75
2022-10-21T09:56:31.286Z,100686.56
2022-10-21T09:59:15.833Z,100695.84
2022-10-21T10:01:44.394Z,100685.06
2022-10-21T10:04:30.552Z,100685.06
2022-10-21T10:07:00.063Z,100685.25
2022-10-21T10:09:30.461Z,100673.47
2022-10-21T10:12:06.955Z,100678.25
2022-10-21T10:14:36.783Z,100666.34
2022-10-21T10:17:35.107Z,100659.06
2022-10-21T10:20:04.468Z,100665.66
2022-10-21T10:22:42.558Z,100670.97
2022-10-21T10:25:12.180Z,100672.72
2022-10-21T10:28:06.715Z,100661.47
2022-10-21T10:30:45.189Z,100654.16
2022-10-21T10:33:34.316Z,100648.28
2022-10-21T10:36:05.523Z,100639.72
2022-10-21T10:38:41.412Z,100638.31
2022-10-21T10:41:18.931Z,100628.44
2022-10-21T10:43:52.445Z,100624.28
2022-10-21T10:46:27.449Z,100620.63
2022-10-21T10:48:56.371Z,100610.25
2022-10-21T10:51:34.060Z,100607.78
2022-10-21T10:54:06.801Z,100604.97
2022-10-21T10:56:42.604Z,100599.94
2022-10-21T10:59:24.737Z,100605.06
2022-10-21T11:02:04.417Z,100592.47
2022-10-21T11:04:35.131Z,100596.63
2022-10-21T11:07:07.796Z,100588.78
2022-10-21T11:09:34.674Z,100578.38
2022-10-21T11:12:10.115Z,100575.69
2022-10-21T11:14:36.699Z,100577.16
2022-10-21T11:17:06.242Z,100568.63
2022-10-21T11:19:52.863Z,100567.81
2022-10-21T11:22:46.908Z,100568.41
2022-10-21T11:25:23.271Z,100570.16
2022-10-21T11:28:23.816Z,100559.69
2022-10-21T11:31:13.453Z,100547.94
2022-10-21T11:33:55.171Z,100551.81
2022-10-21T11:36:37.748Z,100553.91
2022-10-21T11:39:34.509Z,100540.16
2022-10-21T11:42:13.678Z,100543.84
2022-10-21T11:45:03.719Z,100531.84
2022-10-21T11:47:51.790Z,100528.53
2022-10-21T11:50:41.236Z,100502.50
2022-10-21T11:53:35.583Z,100523.59
2022-10-21T11:56:17.415Z,100527.94
2022-10-21T11:59:01.100Z,100522.34
2022-10-21T12:01:54.595Z,100508.06
2022-10-21T12:04:32.529Z,100505.72
2022-10-21T12:07:17.372Z,100505.03
2022-10-21T12:09:43.881Z,100501.47
2022-10-21T12:12:17.497Z,100486.28
2022-10-21T12:14:50.165Z,100486.13
2022-10-21T12:17:20.431Z,100491.34
2022-10-21T12:19:54.226Z,100488.66
2022-10-21T12:22:22.439Z,100487.75
2022-10-21T12:25:09.707Z,100482.00
2022-10-21T12:27:47.504Z,100486.59
2022-10-21T12:30:26.524Z,100482.06
2022-10-21T12:33:15.011Z,100476.13
2022-10-21T12:35:53.605Z,100478.25
2022-10-21T12:38:21.938Z,100484.22
2022-10-21T12:40:49.777Z,100480.31
2022-10-21T12:43:22.724Z,100474.25
2022-10-21T12:46:10.324Z,100474.34
2022-10-21T12:48:40.648Z,100469.06
2022-10-21T12:51:28.520Z,100462.59
2022-10-21T12:54:03.940Z,100460.81
2022-10-21T12:56:37.687Z,100465.81
2022-10-21T12:59:06.740Z,100445.13
2022-10-21T13:01:38.552Z,100448.06
2022-10-21T13:04:15.021Z,100445.91
2022-10-21T13:06:56.067Z,100444.53
2022-10-21T13:09:38.200Z,100445.13
2022-10-21T13:12:10.597Z,100445.16
2022-10-21T13:14:40.236Z,100447.75
2022-10-21T13:17:21.865Z,100440.47
2022-10-21T13:20:06.902Z,100436.25
2022-10-21T13:22:33.427Z,100436.81
2022-10-21T13:25:37.377Z,100432.16
2022-10-21T13:28:15.888Z,100425.78
2022-10-21T13:30:48.548Z,100422.75
2022-10-21T13:33:22.418Z,100416.75
2022-10-21T13:35:54.559Z,100416.50
2022-10-21T13:38:25.005Z,100410.25
2022-10-21T13:40:55.465Z,100416.28
2022-10-21T13:43:25.902Z,100412.09
2022-10-21T13:46:03.691Z,100411.28
2022-10-21T13:48:31.032Z,100409.22
2022-10-21T13:51:07.119Z,100406.78
2022-10-21T13:53:33.798Z,100409.28
2022-10-21T13:56:07.043Z,100401.38
2022-10-21T13:58:37.613Z,100403.63
2022-10-21T14:01:25.518Z,100396.75
2022-10-21T14:04:10.356Z,100393.34
2022-10-21T14:06:42.004Z,100394.72
2022-10-21T14:09:19.354Z,100391.94
2022-10-21T14:11:48.786Z,100383.53
2022-10-21T14:14:19.576Z,100396.06
2022-10-21T14:16:55.867Z,100393.63
2022-10-21T14:19:34.827Z,100395.97
2022-10-21T14:22:02.700Z,100385.59
2022-10-21T14:24:48.048Z,100377.03
2022-10-21T14:27:19.031Z,100370.69
2022-10-21T14:29:46.271Z,100375.19
2022-10-21T14:32:18.066Z,100371.25
2022-10-21T14:35:06.950Z,100377.59
2022-10-21T14:37:49.428Z,100373.28
2022-10-21T14:40:35.777Z,100356.63
2022-10-21T14:43:06.978Z,100364.69
2022-10-21T14:45:36.642Z,100371.75
2022-10-21T14:48:09.310Z,100362.66
2022-10-21T14:50:38.776Z,100363.28
2022-10-21T14:53:19.039Z,100354.97
2022-10-21T14:55:48.171Z,100351.09
2022-10-21T15:01:12.501Z,100361.94
2022-10-21T15:03:47.612Z,100358.66
2022-10-21T15:06:29.529Z,100359.63
2022-10-21T15:08:56.135Z,100363.47
2022-10-21T15:11:25.749Z,100360.78
2022-10-21T15:14:14.002Z,100349.41
2022-10-21T15:16:50.828Z,100346.09
2022-10-21T15:19:26.364Z,100340.75
2022-10-21T15:21:56.919Z,100333.47
2022-10-21T15:24:26.657Z,100321.84
2022-10-21T15:26:54.151Z,100320.78
2022-10-21T15:29:20.673Z,100322.09
2022-10-21T15:31:47.711Z,100321.06
2022-10-21T15:34:15.991Z,100327.38
2022-10-21T15:39:18.979Z,100332.09
2022-10-21T15:41:48.491Z,100332.75
2022-10-21T15:44:25.108Z,100332.63
2022-10-21T15:46:51.899Z,100337.47
2022-10-21T15:49:24.877Z,100340.88
2022-10-21T15:51:51.621Z,100330.53
2022-10-21T15:54:19.361Z,100332.28
2022-10-21T15:56:49.164Z,100339.41
2022-10-21T15:59:22.003Z,100334.00
2022-10-21T16:01:50.246Z,100332.88
2022-10-21T16:04:17.169Z,100337.56
2022-10-21T16:06:44.592Z,100331.09
2022-10-21T16:09:14.707Z,100323.50
2022-10-21T16:11:54.770Z,100320.66
2022-10-21T16:14:29.267Z,100323.59
2022-10-21T16:16:58.325Z,100330.63
2022-10-21T16:19:24.945Z,100336.69
2022-10-21T16:21:51.644Z,100333.34
2022-10-21T16:24:18.535Z,100332.09
2022-10-21T16:26:47.696Z,100348.91
2022-10-21T16:29:23.333Z,100347.34
2022-10-21T16:31:50.284Z,100342.78
2022-10-21T16:34:16.939Z,100346.41
2022-10-21T16:36:43.831Z,100341.25
2022-10-21T16:39:15.131Z,100346.56
2022-10-21T16:41:41.709Z,100353.28
2022-10-21T16:44:08.307Z,100349.06
2022-10-21T16:46:38.047Z,100344.25
2022-10-21T16:49:12.888Z,100344.16
2022-10-21T16:51:41.848Z,100347.72
2022-10-21T16:54:08.601Z,100343.78
2022-10-21T16:56:35.187Z,100337.47
2022-10-21T16:59:01.782Z,100328.50
2022-10-21T17:01:28.407Z,100323.38
2022-10-21T17:03:55.067Z,100316.53
2022-10-21T17:06:24.617Z,100323.50
2022-10-21T17:08:53.126Z,100323.63
2022-10-21T17:11:23.147Z,100324.91
2022-10-21T17:13:49.979Z,100322.38
2022-10-21T17:16:17.497Z,100332.75
2022-10-21T17:18:44.278Z,100327.78
2022-10-21T17:21:20.888Z,100327.53
2022-10-21T17:23:51.144Z,100312.72
2022-10-21T17:26:18.616Z,100320.28
2022-10-21T17:28:45.790Z,100325.47
2022-10-21T17:31:17.726Z,100333.34
2022-10-21T17:33:45.038Z,100337.63
2022-10-21T17:36:11.808Z,100331.56
2022-10-21T17:38:38.617Z,100335.53
2022-10-21T17:41:05.424Z,100324.47
2022-10-21T17:43:32.077Z,100314.84
2022-10-21T17:45:58.775Z,100317.59
2022-10-21T17:48:25.501Z,100325.16
2022-10-21T17:50:56.787Z,100328.94
2022-10-21T17:53:23.761Z,100323.78
2022-10-21T17:56:05.109Z,100324.47
2022-10-21T17:58:31.706Z,100328.56
2022-10-21T18:00:58.846Z,100321.06
2022-10-21T18:03:27.427Z,100323.28
2022-10-21T18:05:55.913Z,100331.56
2022-10-21T18:08:23.322Z,100327.22
2022-10-21T18:10:54.574Z,100320.13
2022-10-21T18:13:26.284Z,100318.47
2022-10-21T18:15:53.673Z,100320.28
2022-10-21T18:18:22.089Z,100320.34
2022-10-21T18:20:49.280Z,100310.75
2022-10-21T18:23:15.912Z,100314.28
2022-10-21T18:25:42.621Z,100304.00
2022-10-21T18:28:09.490Z,100300.72
2022-10-21T18:30:42.317Z,100301.75
2022-10-21T18:33:09.330Z,100308.47
2022-10-21T18:35:35.965Z,100305.75
2022-10-21T18:38:02.538Z,100304.22
2022-10-21T18:40:29.215Z,100308.28
2022-10-21T18:42:55.877Z,100296.22
2022-10-21T18:45:22.481Z,100300.44
2022-10-21T18:47:49.067Z,100288.50
2022-10-21T18:50:16.122Z,100288.47
2022-10-21T18:52:42.737Z,100284.09
2022-10-21T18:55:09.464Z,100276.47
2022-10-21T18:57:36.032Z,100279.06
2022-10-21T19:00:03.971Z,100280.00
2022-10-21T19:02:30.559Z,100271.13
2022-10-21T19:04:59.761Z,100269.94
2022-10-21T19:07:28.918Z,100269.59
2022-10-21T19:09:56.117Z,100259.94
2022-10-21T19:12:23.730Z,100262.06
2022-10-21T19:14:50.700Z,100256.56
2022-10-21T19:17:17.845Z,100257.38
2022-10-21T19:19:44.442Z,100259.84
2022-10-21T19:22:11.084Z,100256.44
2022-10-21T19:24:37.772Z,100262.78
2022-10-21T19:27:04.363Z,100250.63
2022-10-21T19:29:30.994Z,100248.78
2022-10-21T19:31:57.556Z,100261.13
2022-10-21T19:34:24.658Z,100263.47
2022-10-21T19:36:51.234Z,100260.72
2022-10-21T19:39:18.908Z,100264.50
2022-10-21T19:41:46.363Z,100259.16
2022-10-21T19:44:12.985Z,100255.53
2022-10-21T19:46:39.557Z,100263.00
2022-10-21T19:49:07.813Z,100261.97
2022-10-21T19:51:34.977Z,100256.97
2022-10-21T19:54:04.327Z,100251.81
2022-10-21T19:56:33.398Z,100256.25
2022-10-21T19:59:01.692Z,100257.34
2022-10-21T20:01:28.441Z,100257.19
2022-10-21T20:03:55.370Z,100251.19
2022-10-21T20:06:30.620Z,100254.75
2022-10-21T20:09:00.544Z,100250.28
2022-10-21T20:11:27.918Z,100253.91
2022-10-21T20:13:54.554Z,100252.34
2022-10-21T20:16:27.346Z,100243.41
2022-10-21T20:18:55.667Z,100245.44
2022-10-21T20:21:23.463Z,100242.13
2022-10-21T20:23:50.860Z,100231.16
2022-10-21T20:26:17.758Z,100231.31
2022-10-21T20:28:44.342Z,100239.84
2022-10-21T20:31:13.226Z,100241.75
2022-10-21T20:33:42.786Z,100233.13
2022-10-21T20:36:15.993Z,100236.63
2022-10-21T20:38:42.873Z,100251.63
2022-10-21T20:41:13.942Z,100241.25
2022-10-21T20:43:41.792Z,100249.13
2022-10-21T20:46:11.083Z,100263.38
2022-10-21T20:48:41.858Z,100259.00
2022-10-21T20:51:11.299Z,100256.38
2022-10-21T20:53:38.250Z,100254.75
2022-10-21T20:56:04.943Z,100256.47
2022-10-21T20:58:35.007Z,100244.81
2022-10-21T21:01:32.989Z,100249.13
2022-10-21T21:04:03.599Z,100255.97
2022-10-21T21:06:31.212Z,100248.97
2022-10-21T21:09:22.455Z,100248.06
2022-10-21T21:11:45.049Z,100248.06
2022-10-21T21:14:11.856Z,100249.16
2022-10-21T21:16:38.535Z,100246.66
2022-10-21T21:19:07.150Z,100238.56
2022-10-21T21:21:36.130Z,100241.53
2022-10-21T21:24:03.322Z,100238.63
2022-10-21T21:26:35.867Z,100229.06
2022-10-21T21:29:03.962Z,100233.50
2022-10-21T21:31:30.539Z,100230.16
2022-10-21T21:33:57.939Z,100227.88
2022-10-21T21:36:25.658Z,100234.97
2022-10-21T21:38:52.296Z,100241.31
2022-10-21T21:41:18.945Z,100246.78
2022-10-21T21:43:47.358Z,100229.81
2022-10-21T21:46:15.267Z,100219.25
2022-10-21T21:48:44.487Z,100214.16
2022-10-21T21:51:13.434Z,100207.66
2022-10-21T21:53:40.019Z,100206.31
2022-10-21T21:56:07.268Z,100216.41
2022-10-21T21:58:34.706Z,100220.19
2022-10-21T22:01:15.584Z,100218.25
2022-10-21T22:03:42.768Z,100201.63
2022-10-21T22:06:10.204Z,100196.41
2022-10-21T22:08:41.803Z,100195.66
2022-10-21T22:11:17.234Z,100201.72
2022-10-21T22:13:44.338Z,100199.06
2022-10-21T22:16:12.345Z,100198.88
2022-10-21T22:18:39.652Z,100200.50
2022-10-21T22:21:08.715Z,100205.69
2022-10-21T22:23:36.166Z,100212.69
2022-10-21T22:26:02.787Z,100208.38
2022-10-21T22:28:29.523Z,100215.41
2022-10-21T22:30:59.533Z,100215.41
2022-10-21T22:33:27.073Z,100218.84
2022-10-21T22:35:53.651Z,100216.59
2022-10-21T22:38:20.350Z,100224.16
2022-10-21T22:40:47.037Z,100222.00
2022-10-21T22:43:13.606Z,100216.81
2022-10-21T22:45:40.204Z,100210.00
2022-10-21T22:48:06.835Z,100210.13
2022-10-21T22:50:33.436Z,100208.75
2022-10-21T22:53:00.055Z,100196.78
2022-10-21T22:55:26.701Z,100205.31
2022-10-21T22:57:53.269Z,100192.03
2022-10-21T23:00:19.933Z,100198.53
2022-10-21T23:02:46.521Z,100190.53
2022-10-21T23:05:13.475Z,100193.06
2022-10-21T23:07:40.532Z,100191.19
2022-10-21T23:12:39.330Z,100201.03
2022-10-21T23:15:07.647Z,100198.88
2022-10-21T23:17:34.501Z,100199.19
2022-10-21T23:20:01.052Z,100200.94
2022-10-21T23:22:27.671Z,100189.66
2022-10-21T23:24:54.300Z,100187.31
2022-10-21T23:27:21.151Z,100196.69
2022-10-21T23:29:47.711Z,100197.56
2022-10-21T23:32:14.311Z,100199.44
2022-10-21T23:34:40.876Z,100204.56
2022-10-21T23:37:07.546Z,100195.22
2022-10-21T23:39:34.301Z,100194.94
2022-10-21T23:42:00.901Z,100178.13
2022-10-21T23:44:27.472Z,100179.81
2022-10-21T23:46:54.090Z,100175.31
2022-10-21T23:49:20.781Z,100179.09
2022-10-21T23:51:47.407Z,100175.47
2022-10-21T23:54:14.063Z,100181.59
2022-10-21T23:56:40.692Z,100182.22
2022-10-21T23:59:07.315Z,100189.97
